sensor_id;sensor_type;location;lat;lon;timestamp;temperature;humidity
69359;HTU21D;56520;49.066;8.660;2023-04-16T00:01:57;7.93;94.63
69359;HTU21D;56520;49.066;8.660;2023-04-16T00:04:23;7.94;94.61
69359;HTU21D;56520;49.066;8.660;2023-04-16T00:06:48;7.98;94.62
69359;HTU21D;56520;49.066;8.660;2023-04-16T00:09:14;7.98;94.57
69359;HTU21D;56520;49.066;8.660;2023-04-16T00:11:39;7.97;94.59
69359;HTU21D;56520;49.066;8.660;2023-04-16T00:14:04;7.94;94.67
69359;HTU21D;56520;49.066;8.660;2023-04-16T00:16:30;7.93;94.67
69359;HTU21D;56520;49.066;8.660;2023-04-16T00:18:55;7.96;94.71
69359;HTU21D;56520;49.066;8.660;2023-04-16T00:21:21;7.91;94.71
69359;HTU21D;56520;49.066;8.660;2023-04-16T00:23:46;7.92;94.74
69359;HTU21D;56520;49.066;8.660;2023-04-16T00:26:11;7.91;94.77
69359;HTU21D;56520;49.066;8.660;2023-04-16T00:28:37;7.91;94.83
69359;HTU21D;56520;49.066;8.660;2023-04-16T00:31:02;7.91;94.87
69359;HTU21D;56520;49.066;8.660;2023-04-16T00:33:28;7.93;94.98
69359;HTU21D;56520;49.066;8.660;2023-04-16T00:35:54;7.89;95.01
69359;HTU21D;56520;49.066;8.660;2023-04-16T00:38:20;7.88;95.10
69359;HTU21D;56520;49.066;8.660;2023-04-16T00:40:45;7.86;95.16
69359;HTU21D;56520;49.066;8.660;2023-04-16T00:43:10;7.85;95.31
69359;HTU21D;56520;49.066;8.660;2023-04-16T00:45:36;7.85;95.50
69359;HTU21D;56520;49.066;8.660;2023-04-16T00:48:01;7.85;95.62
69359;HTU21D;56520;49.066;8.660;2023-04-16T00:50:28;7.84;95.84
69359;HTU21D;56520;49.066;8.660;2023-04-16T00:52:54;7.82;95.91
69359;HTU21D;56520;49.066;8.660;2023-04-16T00:55:20;7.81;96.07
69359;HTU21D;56520;49.066;8.660;2023-04-16T00:57:46;7.77;96.12
69359;HTU21D;56520;49.066;8.660;2023-04-16T01:00:12;7.75;96.22
69359;HTU21D;56520;49.066;8.660;2023-04-16T01:02:38;7.74;96.29
69359;HTU21D;56520;49.066;8.660;2023-04-16T01:05:04;7.75;96.35
69359;HTU21D;56520;49.066;8.660;2023-04-16T01:07:30;7.73;96.35
69359;HTU21D;56520;49.066;8.660;2023-04-16T01:09:56;7.74;96.44
69359;HTU21D;56520;49.066;8.660;2023-04-16T01:12:21;7.72;96.51
69359;HTU21D;56520;49.066;8.660;2023-04-16T01:14:47;7.71;96.52
69359;HTU21D;56520;49.066;8.660;2023-04-16T01:17:13;7.71;96.50
69359;HTU21D;56520;49.066;8.660;2023-04-16T01:19:38;7.72;96.52
69359;HTU21D;56520;49.066;8.660;2023-04-16T01:22:04;7.72;96.51
69359;HTU21D;56520;49.066;8.660;2023-04-16T01:24:30;7.75;96.55
69359;HTU21D;56520;49.066;8.660;2023-04-16T01:26:59;7.75;96.54
69359;HTU21D;56520;49.066;8.660;2023-04-16T01:29:25;7.76;96.55
69359;HTU21D;56520;49.066;8.660;2023-04-16T01:31:51;7.77;96.55
69359;HTU21D;56520;49.066;8.660;2023-04-16T01:34:16;7.77;96.54
69359;HTU21D;56520;49.066;8.660;2023-04-16T01:36:41;7.76;96.51
69359;HTU21D;56520;49.066;8.660;2023-04-16T01:39:07;7.77;96.48
69359;HTU21D;56520;49.066;8.660;2023-04-16T01:41:36;7.77;96.46
69359;HTU21D;56520;49.066;8.660;2023-04-16T01:44:01;7.79;96.47
69359;HTU21D;56520;49.066;8.660;2023-04-16T01:46:28;7.77;96.46
69359;HTU21D;56520;49.066;8.660;2023-04-16T01:48:54;7.76;96.43
69359;HTU21D;56520;49.066;8.660;2023-04-16T01:51:20;7.75;96.43
69359;HTU21D;56520;49.066;8.660;2023-04-16T01:53:45;7.76;96.43
69359;HTU21D;56520;49.066;8.660;2023-04-16T01:56:11;7.75;96.42
69359;HTU21D;56520;49.066;8.660;2023-04-16T01:58:36;7.75;96.41
69359;HTU21D;56520;49.066;8.660;2023-04-16T02:01:03;7.75;96.39
69359;HTU21D;56520;49.066;8.660;2023-04-16T02:03:30;7.76;96.39
69359;HTU21D;56520;49.066;8.660;2023-04-16T02:05:55;7.79;96.27
69359;HTU21D;56520;49.066;8.660;2023-04-16T02:08:21;7.79;96.17
69359;HTU21D;56520;49.066;8.660;2023-04-16T02:10:47;7.78;96.16
69359;HTU21D;56520;49.066;8.660;2023-04-16T02:13:14;7.84;95.93
69359;HTU21D;56520;49.066;8.660;2023-04-16T02:15:44;7.81;95.75
69359;HTU21D;56520;49.066;8.660;2023-04-16T02:18:10;7.78;95.75
69359;HTU21D;56520;49.066;8.660;2023-04-16T02:20:39;7.79;95.71
69359;HTU21D;56520;49.066;8.660;2023-04-16T02:23:04;7.78;95.72
69359;HTU21D;56520;49.066;8.660;2023-04-16T02:25:30;7.79;95.71
69359;HTU21D;56520;49.066;8.660;2023-04-16T02:27:55;7.81;95.68
69359;HTU21D;56520;49.066;8.660;2023-04-16T02:30:21;7.78;95.68
69359;HTU21D;56520;49.066;8.660;2023-04-16T02:32:46;7.82;95.63
69359;HTU21D;56520;49.066;8.660;2023-04-16T02:35:11;7.83;95.57
69359;HTU21D;56520;49.066;8.660;2023-04-16T02:37:37;7.83;95.49
69359;HTU21D;56520;49.066;8.660;2023-04-16T02:40:05;7.78;95.52
69359;HTU21D;56520;49.066;8.660;2023-04-16T02:42:30;7.77;95.57
69359;HTU21D;56520;49.066;8.660;2023-04-16T02:44:56;7.76;95.65
69359;HTU21D;56520;49.066;8.660;2023-04-16T02:47:21;7.74;95.70
69359;HTU21D;56520;49.066;8.660;2023-04-16T02:49:46;7.73;95.77
69359;HTU21D;56520;49.066;8.660;2023-04-16T02:52:12;7.70;95.85
69359;HTU21D;56520;49.066;8.660;2023-04-16T02:54:37;7.69;95.93
69359;HTU21D;56520;49.066;8.660;2023-04-16T02:57:02;7.70;96.00
69359;HTU21D;56520;49.066;8.660;2023-04-16T02:59:28;7.71;96.02
69359;HTU21D;56520;49.066;8.660;2023-04-16T03:01:53;7.70;96.07
69359;HTU21D;56520;49.066;8.660;2023-04-16T03:04:19;7.68;96.10
69359;HTU21D;56520;49.066;8.660;2023-04-16T03:06:44;7.67;96.15
69359;HTU21D;56520;49.066;8.660;2023-04-16T03:09:09;7.67;96.26
69359;HTU21D;56520;49.066;8.660;2023-04-16T03:11:35;7.68;96.36
69359;HTU21D;56520;49.066;8.660;2023-04-16T03:14:00;7.63;96.41
69359;HTU21D;56520;49.066;8.660;2023-04-16T03:16:25;7.63;96.50
69359;HTU21D;56520;49.066;8.660;2023-04-16T03:18:51;7.62;96.56
69359;HTU21D;56520;49.066;8.660;2023-04-16T03:21:16;7.61;96.62
69359;HTU21D;56520;49.066;8.660;2023-04-16T03:23:42;7.61;96.70
69359;HTU21D;56520;49.066;8.660;2023-04-16T03:26:07;7.60;96.70
69359;HTU21D;56520;49.066;8.660;2023-04-16T03:28:32;7.56;96.75
69359;HTU21D;56520;49.066;8.660;2023-04-16T03:30:58;7.55;96.82
69359;HTU21D;56520;49.066;8.660;2023-04-16T03:33:23;7.54;96.85
69359;HTU21D;56520;49.066;8.660;2023-04-16T03:35:56;7.56;96.90
69359;HTU21D;56520;49.066;8.660;2023-04-16T03:38:22;7.55;96.90
69359;HTU21D;56520;49.066;8.660;2023-04-16T03:40:48;7.53;96.91
69359;HTU21D;56520;49.066;8.660;2023-04-16T03:43:13;7.54;96.91
69359;HTU21D;56520;49.066;8.660;2023-04-16T03:45:45;7.55;96.93
69359;HTU21D;56520;49.066;8.660;2023-04-16T03:48:11;7.55;96.94
69359;HTU21D;56520;49.066;8.660;2023-04-16T03:50:36;7.54;96.94
69359;HTU21D;56520;49.066;8.660;2023-04-16T03:53:02;7.54;96.97
69359;HTU21D;56520;49.066;8.660;2023-04-16T03:55:27;7.54;96.96
69359;HTU21D;56520;49.066;8.660;2023-04-16T03:57:55;7.54;96.95
69359;HTU21D;56520;49.066;8.660;2023-04-16T04:00:21;7.55;96.91
69359;HTU21D;56520;49.066;8.660;2023-04-16T04:02:46;7.54;96.86
69359;HTU21D;56520;49.066;8.660;2023-04-16T04:05:12;7.53;96.84
69359;HTU21D;56520;49.066;8.660;2023-04-16T04:07:37;7.54;96.84
69359;HTU21D;56520;49.066;8.660;2023-04-16T04:10:03;7.53;96.82
69359;HTU21D;56520;49.066;8.660;2023-04-16T04:12:28;7.55;96.82
69359;HTU21D;56520;49.066;8.660;2023-04-16T04:14:54;7.56;96.77
69359;HTU21D;56520;49.066;8.660;2023-04-16T04:17:20;7.55;96.72
69359;HTU21D;56520;49.066;8.660;2023-04-16T04:19:45;7.55;96.67
69359;HTU21D;56520;49.066;8.660;2023-04-16T04:22:10;7.58;96.58
69359;HTU21D;56520;49.066;8.660;2023-04-16T04:24:36;7.57;96.49
69359;HTU21D;56520;49.066;8.660;2023-04-16T04:27:01;7.57;96.41
69359;HTU21D;56520;49.066;8.660;2023-04-16T04:29:27;7.55;96.41
69359;HTU21D;56520;49.066;8.660;2023-04-16T04:31:52;7.58;96.44
69359;HTU21D;56520;49.066;8.660;2023-04-16T04:34:19;7.57;96.43
69359;HTU21D;56520;49.066;8.660;2023-04-16T04:36:44;7.57;96.43
69359;HTU21D;56520;49.066;8.660;2023-04-16T04:39:10;7.57;96.43
69359;HTU21D;56520;49.066;8.660;2023-04-16T04:41:35;7.56;96.41
69359;HTU21D;56520;49.066;8.660;2023-04-16T04:44:00;7.57;96.38
69359;HTU21D;56520;49.066;8.660;2023-04-16T04:46:26;7.58;96.30
69359;HTU21D;56520;49.066;8.660;2023-04-16T04:48:51;7.59;96.29
69359;HTU21D;56520;49.066;8.660;2023-04-16T04:51:16;7.60;96.28
69359;HTU21D;56520;49.066;8.660;2023-04-16T04:53:42;7.60;96.23
69359;HTU21D;56520;49.066;8.660;2023-04-16T04:56:07;7.62;96.20
69359;HTU21D;56520;49.066;8.660;2023-04-16T04:58:35;7.61;96.15
69359;HTU21D;56520;49.066;8.660;2023-04-16T05:01:01;7.62;96.12
69359;HTU21D;56520;49.066;8.660;2023-04-16T05:03:26;7.61;96.13
69359;HTU21D;56520;49.066;8.660;2023-04-16T05:05:51;7.63;96.11
69359;HTU21D;56520;49.066;8.660;2023-04-16T05:08:17;7.63;96.08
69359;HTU21D;56520;49.066;8.660;2023-04-16T05:10:42;7.62;96.08
69359;HTU21D;56520;49.066;8.660;2023-04-16T05:13:08;7.63;96.10
69359;HTU21D;56520;49.066;8.660;2023-04-16T05:15:33;7.63;96.10
69359;HTU21D;56520;49.066;8.660;2023-04-16T05:17:58;7.68;96.01
69359;HTU21D;56520;49.066;8.660;2023-04-16T05:20:24;7.67;95.93
69359;HTU21D;56520;49.066;8.660;2023-04-16T05:22:50;7.67;95.94
69359;HTU21D;56520;49.066;8.660;2023-04-16T05:25:16;7.69;95.92
69359;HTU21D;56520;49.066;8.660;2023-04-16T05:27:41;7.71;95.81
69359;HTU21D;56520;49.066;8.660;2023-04-16T05:30:07;7.71;95.73
69359;HTU21D;56520;49.066;8.660;2023-04-16T05:32:33;7.74;95.69
69359;HTU21D;56520;49.066;8.660;2023-04-16T05:34:58;7.78;95.35
69359;HTU21D;56520;49.066;8.660;2023-04-16T05:37:23;7.76;95.24
69359;HTU21D;56520;49.066;8.660;2023-04-16T05:39:49;7.77;95.21
69359;HTU21D;56520;49.066;8.660;2023-04-16T05:42:14;7.79;95.12
69359;HTU21D;56520;49.066;8.660;2023-04-16T05:44:40;7.83;94.99
69359;HTU21D;56520;49.066;8.660;2023-04-16T05:47:05;7.81;94.88
69359;HTU21D;56520;49.066;8.660;2023-04-16T05:49:33;7.83;94.90
69359;HTU21D;56520;49.066;8.660;2023-04-16T05:51:59;7.86;94.85
69359;HTU21D;56520;49.066;8.660;2023-04-16T05:54:25;7.89;94.68
69359;HTU21D;56520;49.066;8.660;2023-04-16T05:56:50;7.86;94.69
69359;HTU21D;56520;49.066;8.660;2023-04-16T05:59:15;7.91;94.11
69359;HTU21D;56520;49.066;8.660;2023-04-16T06:01:41;7.89;94.18
69359;HTU21D;56520;49.066;8.660;2023-04-16T06:04:06;7.88;94.25
69359;HTU21D;56520;49.066;8.660;2023-04-16T06:06:31;7.88;94.36
69359;HTU21D;56520;49.066;8.660;2023-04-16T06:08:57;7.92;94.47
69359;HTU21D;56520;49.066;8.660;2023-04-16T06:11:23;7.94;94.47
69359;HTU21D;56520;49.066;8.660;2023-04-16T06:13:51;7.98;94.45
69359;HTU21D;56520;49.066;8.660;2023-04-16T06:16:17;8.02;94.45
69359;HTU21D;56520;49.066;8.660;2023-04-16T06:18:42;8.08;94.37
69359;HTU21D;56520;49.066;8.660;2023-04-16T06:21:08;8.12;94.20
69359;HTU21D;56520;49.066;8.660;2023-04-16T06:23:33;8.16;94.08
69359;HTU21D;56520;49.066;8.660;2023-04-16T06:25:58;8.21;94.08
69359;HTU21D;56520;49.066;8.660;2023-04-16T06:28:24;8.27;93.92
69359;HTU21D;56520;49.066;8.660;2023-04-16T06:30:49;8.33;93.77
69359;HTU21D;56520;49.066;8.660;2023-04-16T06:33:15;8.35;93.64
69359;HTU21D;56520;49.066;8.660;2023-04-16T06:35:40;8.35;93.51
69359;HTU21D;56520;49.066;8.660;2023-04-16T06:38:06;8.36;93.17
69359;HTU21D;56520;49.066;8.660;2023-04-16T06:40:31;8.36;92.94
69359;HTU21D;56520;49.066;8.660;2023-04-16T06:42:57;8.35;92.69
69359;HTU21D;56520;49.066;8.660;2023-04-16T06:45:22;8.37;92.43
69359;HTU21D;56520;49.066;8.660;2023-04-16T06:47:47;8.39;92.03
69359;HTU21D;56520;49.066;8.660;2023-04-16T06:50:13;8.44;91.77
69359;HTU21D;56520;49.066;8.660;2023-04-16T06:52:39;8.55;91.52
69359;HTU21D;56520;49.066;8.660;2023-04-16T06:55:05;8.59;91.35
69359;HTU21D;56520;49.066;8.660;2023-04-16T06:57:32;8.64;91.16
69359;HTU21D;56520;49.066;8.660;2023-04-16T06:59:57;8.71;90.99
69359;HTU21D;56520;49.066;8.660;2023-04-16T07:02:23;8.78;90.34
69359;HTU21D;56520;49.066;8.660;2023-04-16T07:04:48;8.81;90.15
69359;HTU21D;56520;49.066;8.660;2023-04-16T07:07:14;8.86;89.94
69359;HTU21D;56520;49.066;8.660;2023-04-16T07:09:39;8.87;90.20
69359;HTU21D;56520;49.066;8.660;2023-04-16T07:12:05;8.89;90.10
69359;HTU21D;56520;49.066;8.660;2023-04-16T07:14:31;8.93;90.02
69359;HTU21D;56520;49.066;8.660;2023-04-16T07:16:56;8.98;89.75
69359;HTU21D;56520;49.066;8.660;2023-04-16T07:19:22;9.01;89.87
69359;HTU21D;56520;49.066;8.660;2023-04-16T07:21:48;9.08;89.31
69359;HTU21D;56520;49.066;8.660;2023-04-16T07:24:13;9.14;88.62
69359;HTU21D;56520;49.066;8.660;2023-04-16T07:26:38;9.16;87.99
69359;HTU21D;56520;49.066;8.660;2023-04-16T07:29:04;9.17;88.18
69359;HTU21D;56520;49.066;8.660;2023-04-16T07:31:30;9.19;87.86
69359;HTU21D;56520;49.066;8.660;2023-04-16T07:33:55;9.16;87.93
69359;HTU21D;56520;49.066;8.660;2023-04-16T07:36:21;9.14;87.93
69359;HTU21D;56520;49.066;8.660;2023-04-16T07:38:52;9.11;87.46
69359;HTU21D;56520;49.066;8.660;2023-04-16T07:41:18;9.09;87.57
69359;HTU21D;56520;49.066;8.660;2023-04-16T07:43:43;9.08;87.48
69359;HTU21D;56520;49.066;8.660;2023-04-16T07:46:08;9.09;87.86
69359;HTU21D;56520;49.066;8.660;2023-04-16T07:48:34;9.09;87.99
69359;HTU21D;56520;49.066;8.660;2023-04-16T07:50:59;9.15;87.47
69359;HTU21D;56520;49.066;8.660;2023-04-16T07:53:25;9.16;87.58
69359;HTU21D;56520;49.066;8.660;2023-04-16T07:55:50;9.16;87.60
69359;HTU21D;56520;49.066;8.660;2023-04-16T07:58:15;9.18;87.50
69359;HTU21D;56520;49.066;8.660;2023-04-16T08:00:42;9.17;85.65
69359;HTU21D;56520;49.066;8.660;2023-04-16T08:03:07;9.19;86.21
69359;HTU21D;56520;49.066;8.660;2023-04-16T08:05:33;9.19;86.44
69359;HTU21D;56520;49.066;8.660;2023-04-16T08:07:58;9.21;86.51
69359;HTU21D;56520;49.066;8.660;2023-04-16T08:10:23;9.25;86.51
69359;HTU21D;56520;49.066;8.660;2023-04-16T08:12:49;9.34;86.32
69359;HTU21D;56520;49.066;8.660;2023-04-16T08:15:14;9.38;86.32
69359;HTU21D;56520;49.066;8.660;2023-04-16T08:17:40;9.50;84.99
69359;HTU21D;56520;49.066;8.660;2023-04-16T08:20:06;9.55;85.51
69359;HTU21D;56520;49.066;8.660;2023-04-16T08:22:31;9.64;85.66
69359;HTU21D;56520;49.066;8.660;2023-04-16T08:24:57;9.68;85.27
69359;HTU21D;56520;49.066;8.660;2023-04-16T08:27:23;9.68;85.13
69359;HTU21D;56520;49.066;8.660;2023-04-16T08:29:48;9.66;84.45
69359;HTU21D;56520;49.066;8.660;2023-04-16T08:32:13;9.66;83.41
69359;HTU21D;56520;49.066;8.660;2023-04-16T08:34:40;9.60;84.27
69359;HTU21D;56520;49.066;8.660;2023-04-16T08:37:06;9.56;84.09
69359;HTU21D;56520;49.066;8.660;2023-04-16T08:39:31;9.55;84.37
69359;HTU21D;56520;49.066;8.660;2023-04-16T08:41:57;9.56;83.66
69359;HTU21D;56520;49.066;8.660;2023-04-16T08:44:27;9.57;83.77
69359;HTU21D;56520;49.066;8.660;2023-04-16T08:46:55;9.54;83.84
69359;HTU21D;56520;49.066;8.660;2023-04-16T08:49:24;9.59;83.76
69359;HTU21D;56520;49.066;8.660;2023-04-16T08:51:51;9.57;83.84
69359;HTU21D;56520;49.066;8.660;2023-04-16T08:57:05;9.51;84.20
69359;HTU21D;56520;49.066;8.660;2023-04-16T08:59:31;9.51;84.39
69359;HTU21D;56520;49.066;8.660;2023-04-16T09:01:59;9.54;84.00
69359;HTU21D;56520;49.066;8.660;2023-04-16T09:04:26;9.55;83.98
69359;HTU21D;56520;49.066;8.660;2023-04-16T09:06:54;9.54;84.07
69359;HTU21D;56520;49.066;8.660;2023-04-16T09:09:20;9.55;83.90
69359;HTU21D;56520;49.066;8.660;2023-04-16T09:11:50;9.59;83.78
69359;HTU21D;56520;49.066;8.660;2023-04-16T09:14:16;9.57;83.91
69359;HTU21D;56520;49.066;8.660;2023-04-16T09:16:41;9.64;84.11
69359;HTU21D;56520;49.066;8.660;2023-04-16T09:19:08;9.74;83.79
69359;HTU21D;56520;49.066;8.660;2023-04-16T09:21:34;9.84;83.87
69359;HTU21D;56520;49.066;8.660;2023-04-16T09:24:00;9.94;83.53
69359;HTU21D;56520;49.066;8.660;2023-04-16T09:26:26;10.01;83.37
69359;HTU21D;56520;49.066;8.660;2023-04-16T09:28:52;10.03;82.93
69359;HTU21D;56520;49.066;8.660;2023-04-16T09:31:18;10.06;83.39
69359;HTU21D;56520;49.066;8.660;2023-04-16T09:36:28;10.06;83.23
69359;HTU21D;56520;49.066;8.660;2023-04-16T09:38:53;10.04;83.42
69359;HTU21D;56520;49.066;8.660;2023-04-16T09:41:24;10.05;83.87
69359;HTU21D;56520;49.066;8.660;2023-04-16T09:44:00;10.08;84.00
69359;HTU21D;56520;49.066;8.660;2023-04-16T09:46:40;10.10;83.97
69359;HTU21D;56520;49.066;8.660;2023-04-16T09:49:15;10.12;83.45
69359;HTU21D;56520;49.066;8.660;2023-04-16T09:51:45;10.10;83.76
69359;HTU21D;56520;49.066;8.660;2023-04-16T09:54:11;10.11;83.66
69359;HTU21D;56520;49.066;8.660;2023-04-16T09:56:43;10.10;83.96
69359;HTU21D;56520;49.066;8.660;2023-04-16T09:59:18;10.07;84.05
69359;HTU21D;56520;49.066;8.660;2023-04-16T10:01:45;10.07;84.27
69359;HTU21D;56520;49.066;8.660;2023-04-16T10:04:11;10.06;84.55
69359;HTU21D;56520;49.066;8.660;2023-04-16T10:06:36;10.01;84.76
69359;HTU21D;56520;49.066;8.660;2023-04-16T10:09:06;9.96;84.96
69359;HTU21D;56520;49.066;8.660;2023-04-16T10:11:32;9.96;85.44
69359;HTU21D;56520;49.066;8.660;2023-04-16T10:13:57;9.93;85.51
69359;HTU21D;56520;49.066;8.660;2023-04-16T10:16:23;9.92;85.45
69359;HTU21D;56520;49.066;8.660;2023-04-16T10:18:49;9.90;85.70
69359;HTU21D;56520;49.066;8.660;2023-04-16T10:21:14;9.92;85.77
69359;HTU21D;56520;49.066;8.660;2023-04-16T10:23:42;9.99;85.55
69359;HTU21D;56520;49.066;8.660;2023-04-16T10:26:08;10.10;85.49
69359;HTU21D;56520;49.066;8.660;2023-04-16T10:28:34;10.16;85.57
69359;HTU21D;56520;49.066;8.660;2023-04-16T10:31:03;10.22;85.61
69359;HTU21D;56520;49.066;8.660;2023-04-16T10:33:36;10.16;86.23
69359;HTU21D;56520;49.066;8.660;2023-04-16T10:36:11;10.11;87.10
69359;HTU21D;56520;49.066;8.660;2023-04-16T10:38:44;9.94;87.59
69359;HTU21D;56520;49.066;8.660;2023-04-16T10:41:10;9.69;88.35
69359;HTU21D;56520;49.066;8.660;2023-04-16T10:43:41;9.44;89.13
69359;HTU21D;56520;49.066;8.660;2023-04-16T10:46:39;9.32;89.79
69359;HTU21D;56520;49.066;8.660;2023-04-16T10:49:24;9.24;90.45
69359;HTU21D;56520;49.066;8.660;2023-04-16T10:51:59;9.14;90.90
69359;HTU21D;56520;49.066;8.660;2023-04-16T10:56:55;9.01;91.85
69359;HTU21D;56520;49.066;8.660;2023-04-16T10:59:22;8.97;92.41
69359;HTU21D;56520;49.066;8.660;2023-04-16T11:01:53;8.97;92.79
69359;HTU21D;56520;49.066;8.660;2023-04-16T11:12:16;9.05;93.00
69359;HTU21D;56520;49.066;8.660;2023-04-16T11:14:47;9.09;92.82
69359;HTU21D;56520;49.066;8.660;2023-04-16T11:17:13;9.03;92.74
69359;HTU21D;56520;49.066;8.660;2023-04-16T11:19:41;9.05;92.86
69359;HTU21D;56520;49.066;8.660;2023-04-16T11:22:06;9.06;92.82
69359;HTU21D;56520;49.066;8.660;2023-04-16T11:24:32;9.12;92.87
69359;HTU21D;56520;49.066;8.660;2023-04-16T11:26:58;9.15;92.89
69359;HTU21D;56520;49.066;8.660;2023-04-16T11:29:24;9.15;92.95
69359;HTU21D;56520;49.066;8.660;2023-04-16T11:31:53;9.19;93.22
69359;HTU21D;56520;49.066;8.660;2023-04-16T11:34:19;9.10;93.11
69359;HTU21D;56520;49.066;8.660;2023-04-16T11:36:46;9.05;93.21
69359;HTU21D;56520;49.066;8.660;2023-04-16T11:39:12;9.01;93.37
69359;HTU21D;56520;49.066;8.660;2023-04-16T11:41:44;8.95;93.62
69359;HTU21D;56520;49.066;8.660;2023-04-16T11:44:23;8.92;93.84
69359;HTU21D;56520;49.066;8.660;2023-04-16T11:46:51;8.80;93.89
69359;HTU21D;56520;49.066;8.660;2023-04-16T11:49:17;8.81;94.16
69359;HTU21D;56520;49.066;8.660;2023-04-16T11:51:51;8.83;94.27
69359;HTU21D;56520;49.066;8.660;2023-04-16T11:54:21;8.82;94.47
69359;HTU21D;56520;49.066;8.660;2023-04-16T11:56:48;8.80;94.67
69359;HTU21D;56520;49.066;8.660;2023-04-16T11:59:18;8.82;94.65
69359;HTU21D;56520;49.066;8.660;2023-04-16T12:01:49;8.80;94.62
69359;HTU21D;56520;49.066;8.660;2023-04-16T12:04:17;8.83;94.48
69359;HTU21D;56520;49.066;8.660;2023-04-16T12:09:33;8.92;94.37
69359;HTU21D;56520;49.066;8.660;2023-04-16T12:12:00;8.92;94.45
69359;HTU21D;56520;49.066;8.660;2023-04-16T12:14:25;8.90;94.46
69359;HTU21D;56520;49.066;8.660;2023-04-16T12:16:51;8.91;94.49
69359;HTU21D;56520;49.066;8.660;2023-04-16T12:19:17;8.94;94.43
69359;HTU21D;56520;49.066;8.660;2023-04-16T12:21:44;8.91;94.39
69359;HTU21D;56520;49.066;8.660;2023-04-16T12:24:11;8.92;94.36
69359;HTU21D;56520;49.066;8.660;2023-04-16T12:26:42;8.93;94.40
69359;HTU21D;56520;49.066;8.660;2023-04-16T12:31:40;8.92;94.33
69359;HTU21D;56520;49.066;8.660;2023-04-16T12:34:06;8.95;94.36
69359;HTU21D;56520;49.066;8.660;2023-04-16T12:36:31;8.93;94.39
69359;HTU21D;56520;49.066;8.660;2023-04-16T12:38:57;8.97;94.52
69359;HTU21D;56520;49.066;8.660;2023-04-16T12:41:22;9.00;94.43
69359;HTU21D;56520;49.066;8.660;2023-04-16T12:43:48;8.96;94.40
69359;HTU21D;56520;49.066;8.660;2023-04-16T12:46:13;8.96;94.43
69359;HTU21D;56520;49.066;8.660;2023-04-16T12:48:38;9.00;94.48
69359;HTU21D;56520;49.066;8.660;2023-04-16T12:51:04;9.03;94.48
69359;HTU21D;56520;49.066;8.660;2023-04-16T12:53:30;9.02;94.50
69359;HTU21D;56520;49.066;8.660;2023-04-16T12:55:55;9.03;94.56
69359;HTU21D;56520;49.066;8.660;2023-04-16T12:58:21;9.04;94.53
69359;HTU21D;56520;49.066;8.660;2023-04-16T13:00:46;9.10;94.42
69359;HTU21D;56520;49.066;8.660;2023-04-16T13:03:11;9.16;94.32
69359;HTU21D;56520;49.066;8.660;2023-04-16T13:05:37;9.20;94.22
69359;HTU21D;56520;49.066;8.660;2023-04-16T13:08:02;9.25;94.02
69359;HTU21D;56520;49.066;8.660;2023-04-16T13:10:28;9.29;93.96
69359;HTU21D;56520;49.066;8.660;2023-04-16T13:12:53;9.32;93.89
69359;HTU21D;56520;49.066;8.660;2023-04-16T13:15:18;9.35;93.73
69359;HTU21D;56520;49.066;8.660;2023-04-16T13:17:44;9.33;93.71
69359;HTU21D;56520;49.066;8.660;2023-04-16T13:20:10;9.30;93.70
69359;HTU21D;56520;49.066;8.660;2023-04-16T13:22:35;9.27;93.79
69359;HTU21D;56520;49.066;8.660;2023-04-16T13:25:01;9.29;93.84
69359;HTU21D;56520;49.066;8.660;2023-04-16T13:27:26;9.31;93.85
69359;HTU21D;56520;49.066;8.660;2023-04-16T13:29:51;9.29;93.87
69359;HTU21D;56520;49.066;8.660;2023-04-16T13:32:17;9.27;93.91
69359;HTU21D;56520;49.066;8.660;2023-04-16T13:34:43;9.29;94.03
69359;HTU21D;56520;49.066;8.660;2023-04-16T13:37:08;9.26;93.97
69359;HTU21D;56520;49.066;8.660;2023-04-16T13:39:34;9.26;94.01
69359;HTU21D;56520;49.066;8.660;2023-04-16T13:41:59;9.29;93.99
69359;HTU21D;56520;49.066;8.660;2023-04-16T13:44:25;9.31;93.97
69359;HTU21D;56520;49.066;8.660;2023-04-16T13:46:51;9.30;93.92
69359;HTU21D;56520;49.066;8.660;2023-04-16T13:49:16;9.31;93.85
69359;HTU21D;56520;49.066;8.660;2023-04-16T13:51:42;9.32;93.78
69359;HTU21D;56520;49.066;8.660;2023-04-16T13:54:08;9.32;93.74
69359;HTU21D;56520;49.066;8.660;2023-04-16T13:56:34;9.32;93.69
69359;HTU21D;56520;49.066;8.660;2023-04-16T13:58:59;9.31;93.65
69359;HTU21D;56520;49.066;8.660;2023-04-16T14:01:25;9.33;93.67
69359;HTU21D;56520;49.066;8.660;2023-04-16T14:03:50;9.34;93.69
69359;HTU21D;56520;49.066;8.660;2023-04-16T14:06:16;9.38;93.66
69359;HTU21D;56520;49.066;8.660;2023-04-16T14:08:42;9.42;93.60
69359;HTU21D;56520;49.066;8.660;2023-04-16T14:11:07;9.44;93.56
69359;HTU21D;56520;49.066;8.660;2023-04-16T14:13:33;9.42;93.53
69359;HTU21D;56520;49.066;8.660;2023-04-16T14:15:58;9.42;93.54
69359;HTU21D;56520;49.066;8.660;2023-04-16T14:18:24;9.44;93.55
69359;HTU21D;56520;49.066;8.660;2023-04-16T14:20:50;9.44;93.53
69359;HTU21D;56520;49.066;8.660;2023-04-16T14:23:15;9.44;93.55
69359;HTU21D;56520;49.066;8.660;2023-04-16T14:25:40;9.47;93.53
69359;HTU21D;56520;49.066;8.660;2023-04-16T14:28:06;9.51;93.49
69359;HTU21D;56520;49.066;8.660;2023-04-16T14:30:33;9.53;93.40
69359;HTU21D;56520;49.066;8.660;2023-04-16T14:32:58;9.52;93.35
69359;HTU21D;56520;49.066;8.660;2023-04-16T14:35:23;9.51;93.40
69359;HTU21D;56520;49.066;8.660;2023-04-16T14:37:49;9.47;93.48
69359;HTU21D;56520;49.066;8.660;2023-04-16T14:40:14;9.48;93.56
69359;HTU21D;56520;49.066;8.660;2023-04-16T14:42:40;9.45;93.62
69359;HTU21D;56520;49.066;8.660;2023-04-16T14:45:06;9.45;93.66
69359;HTU21D;56520;49.066;8.660;2023-04-16T14:47:32;9.42;93.74
69359;HTU21D;56520;49.066;8.660;2023-04-16T14:49:58;9.42;93.80
69359;HTU21D;56520;49.066;8.660;2023-04-16T14:52:24;9.38;93.95
69359;HTU21D;56520;49.066;8.660;2023-04-16T14:54:50;9.41;94.01
69359;HTU21D;56520;49.066;8.660;2023-04-16T14:57:16;9.40;94.01
69359;HTU21D;56520;49.066;8.660;2023-04-16T14:59:42;9.40;94.03
69359;HTU21D;56520;49.066;8.660;2023-04-16T15:02:08;9.40;94.04
69359;HTU21D;56520;49.066;8.660;2023-04-16T15:04:34;9.42;94.03
69359;HTU21D;56520;49.066;8.660;2023-04-16T15:07:00;9.44;93.99
69359;HTU21D;56520;49.066;8.660;2023-04-16T15:09:25;9.45;94.01
69359;HTU21D;56520;49.066;8.660;2023-04-16T15:11:52;9.45;94.05
69359;HTU21D;56520;49.066;8.660;2023-04-16T15:14:17;9.44;94.03
69359;HTU21D;56520;49.066;8.660;2023-04-16T15:16:44;9.39;94.09
69359;HTU21D;56520;49.066;8.660;2023-04-16T15:19:10;9.38;94.17
69359;HTU21D;56520;49.066;8.660;2023-04-16T15:21:35;9.35;94.25
69359;HTU21D;56520;49.066;8.660;2023-04-16T15:24:01;9.35;94.30
69359;HTU21D;56520;49.066;8.660;2023-04-16T15:26:27;9.34;94.40
69359;HTU21D;56520;49.066;8.660;2023-04-16T15:28:53;9.31;94.48
69359;HTU21D;56520;49.066;8.660;2023-04-16T15:31:18;9.29;94.54
69359;HTU21D;56520;49.066;8.660;2023-04-16T15:33:45;9.29;94.66
69359;HTU21D;56520;49.066;8.660;2023-04-16T15:36:11;9.29;94.65
69359;HTU21D;56520;49.066;8.660;2023-04-16T15:38:37;9.27;94.72
69359;HTU21D;56520;49.066;8.660;2023-04-16T15:41:02;9.26;94.77
69359;HTU21D;56520;49.066;8.660;2023-04-16T15:43:28;9.24;94.88
69359;HTU21D;56520;49.066;8.660;2023-04-16T15:45:54;9.22;94.94